sensor_id;sensor_type;location;lat;lon;timestamp;P1;durP1;ratioP1;P2;durP2;ratioP2
76593;SDS011;65482;50.240;14.302;2024-03-23T00:52:27;19.80;;;11.90;;
76593;SDS011;65482;50.240;14.302;2024-03-23T00:54:52;20.15;;;11.80;;
76593;SDS011;65482;50.240;14.302;2024-03-23T00:57:18;19.58;;;11.80;;
76593;SDS011;65482;50.240;14.302;2024-03-23T00:59:44;19.70;;;11.50;;
76593;SDS011;65482;50.240;14.302;2024-03-23T01:02:10;19.45;;;11.95;;
76593;SDS011;65482;50.240;14.302;2024-03-23T01:04:35;18.48;;;11.50;;
76593;SDS011;65482;50.240;14.302;2024-03-23T01:07:01;19.77;;;11.30;;
76593;SDS011;65482;50.240;14.302;2024-03-23T01:09:26;19.00;;;11.30;;
76593;SDS011;65482;50.240;14.302;2024-03-23T01:11:52;19.45;;;11.27;;
76593;SDS011;65482;50.240;14.302;2024-03-23T01:14:17;18.42;;;10.85;;
76593;SDS011;65482;50.240;14.302;2024-03-23T01:16:43;16.95;;;10.73;;
76593;SDS011;65482;50.240;14.302;2024-03-23T01:19:08;17.83;;;11.57;;
76593;SDS011;65482;50.240;14.302;2024-03-23T01:21:34;16.02;;;10.50;;
76593;SDS011;65482;50.240;14.302;2024-03-23T01:24:00;17.75;;;10.68;;
76593;SDS011;65482;50.240;14.302;2024-03-23T01:26:26;18.10;;;10.73;;
76593;SDS011;65482;50.240;14.302;2024-03-23T01:28:51;22.75;;;12.15;;
76593;SDS011;65482;50.240;14.302;2024-03-23T01:31:17;21.98;;;12.45;;
76593;SDS011;65482;50.240;14.302;2024-03-23T01:33:43;25.17;;;12.30;;
76593;SDS011;65482;50.240;14.302;2024-03-23T01:36:08;21.40;;;13.02;;
76593;SDS011;65482;50.240;14.302;2024-03-23T01:38:34;21.67;;;12.48;;
76593;SDS011;65482;50.240;14.302;2024-03-23T01:41:00;20.90;;;12.32;;
76593;SDS011;65482;50.240;14.302;2024-03-23T01:43:26;20.30;;;12.27;;
76593;SDS011;65482;50.240;14.302;2024-03-23T01:45:52;18.95;;;11.90;;
76593;SDS011;65482;50.240;14.302;2024-03-23T01:48:19;21.17;;;12.23;;
76593;SDS011;65482;50.240;14.302;2024-03-23T01:50:46;23.20;;;12.75;;
76593;SDS011;65482;50.240;14.302;2024-03-23T01:53:11;22.55;;;12.48;;
76593;SDS011;65482;50.240;14.302;2024-03-23T01:55:39;20.35;;;12.98;;
76593;SDS011;65482;50.240;14.302;2024-03-23T01:58:04;18.70;;;11.95;;
76593;SDS011;65482;50.240;14.302;2024-03-23T02:00:30;21.60;;;12.65;;
76593;SDS011;65482;50.240;14.302;2024-03-23T02:02:55;23.20;;;12.57;;
76593;SDS011;65482;50.240;14.302;2024-03-23T02:05:21;20.90;;;12.32;;
76593;SDS011;65482;50.240;14.302;2024-03-23T02:07:47;20.27;;;11.68;;
76593;SDS011;65482;50.240;14.302;2024-03-23T02:10:13;19.73;;;13.05;;
76593;SDS011;65482;50.240;14.302;2024-03-23T02:12:38;18.73;;;11.77;;
76593;SDS011;65482;50.240;14.302;2024-03-23T02:15:04;22.83;;;12.55;;
76593;SDS011;65482;50.240;14.302;2024-03-23T02:17:31;20.00;;;12.80;;
76593;SDS011;65482;50.240;14.302;2024-03-23T02:19:59;19.60;;;12.13;;
76593;SDS011;65482;50.240;14.302;2024-03-23T02:22:25;22.48;;;12.52;;
76593;SDS011;65482;50.240;14.302;2024-03-23T02:24:59;20.17;;;11.98;;
76593;SDS011;65482;50.240;14.302;2024-03-23T02:27:24;21.63;;;12.85;;
76593;SDS011;65482;50.240;14.302;2024-03-23T02:29:50;22.73;;;12.65;;
76593;SDS011;65482;50.240;14.302;2024-03-23T02:32:15;20.35;;;12.48;;
76593;SDS011;65482;50.240;14.302;2024-03-23T02:34:41;19.10;;;11.60;;
76593;SDS011;65482;50.240;14.302;2024-03-23T02:37:10;19.10;;;12.27;;
76593;SDS011;65482;50.240;14.302;2024-03-23T02:39:37;19.85;;;12.27;;
76593;SDS011;65482;50.240;14.302;2024-03-23T02:42:02;20.65;;;12.20;;
76593;SDS011;65482;50.240;14.302;2024-03-23T02:44:28;20.83;;;12.32;;
76593;SDS011;65482;50.240;14.302;2024-03-23T02:46:54;19.70;;;12.50;;
76593;SDS011;65482;50.240;14.302;2024-03-23T02:49:19;18.02;;;11.52;;
76593;SDS011;65482;50.240;14.302;2024-03-23T02:51:46;21.77;;;12.55;;
76593;SDS011;65482;50.240;14.302;2024-03-23T02:54:14;19.60;;;11.73;;
76593;SDS011;65482;50.240;14.302;2024-03-23T02:56:39;18.35;;;11.85;;
76593;SDS011;65482;50.240;14.302;2024-03-23T02:59:05;19.52;;;11.43;;
76593;SDS011;65482;50.240;14.302;2024-03-23T03:01:31;20.13;;;11.75;;
76593;SDS011;65482;50.240;14.302;2024-03-23T03:03:56;21.20;;;11.90;;
76593;SDS011;65482;50.240;14.302;2024-03-23T03:06:23;17.65;;;11.40;;
76593;SDS011;65482;50.240;14.302;2024-03-23T03:08:51;21.15;;;11.68;;
76593;SDS011;65482;50.240;14.302;2024-03-23T03:11:17;24.60;;;12.52;;
76593;SDS011;65482;50.240;14.302;2024-03-23T03:13:43;19.48;;;11.80;;
76593;SDS011;65482;50.240;14.302;2024-03-23T03:16:09;20.60;;;11.68;;
76593;SDS011;65482;50.240;14.302;2024-03-23T03:18:35;17.98;;;11.00;;
76593;SDS011;65482;50.240;14.302;2024-03-23T03:21:01;19.33;;;11.88;;
76593;SDS011;65482;50.240;14.302;2024-03-23T03:23:27;19.55;;;11.95;;
76593;SDS011;65482;50.240;14.302;2024-03-23T03:25:53;18.55;;;11.85;;
76593;SDS011;65482;50.240;14.302;2024-03-23T03:28:18;18.30;;;11.68;;
76593;SDS011;65482;50.240;14.302;2024-03-23T03:30:44;19.27;;;12.18;;
76593;SDS011;65482;50.240;14.302;2024-03-23T03:33:10;19.42;;;11.35;;
76593;SDS011;65482;50.240;14.302;2024-03-23T03:35:36;20.25;;;12.35;;
76593;SDS011;65482;50.240;14.302;2024-03-23T03:38:04;17.27;;;11.07;;
76593;SDS011;65482;50.240;14.302;2024-03-23T03:40:29;19.20;;;12.20;;
76593;SDS011;65482;50.240;14.302;2024-03-23T03:42:55;19.20;;;11.80;;
76593;SDS011;65482;50.240;14.302;2024-03-23T03:45:21;22.70;;;11.85;;
76593;SDS011;65482;50.240;14.302;2024-03-23T03:47:46;20.13;;;11.93;;
76593;SDS011;65482;50.240;14.302;2024-03-23T03:50:12;18.02;;;11.57;;
76593;SDS011;65482;50.240;14.302;2024-03-23T03:52:38;19.80;;;11.82;;
76593;SDS011;65482;50.240;14.302;2024-03-23T03:55:03;16.95;;;11.35;;
76593;SDS011;65482;50.240;14.302;2024-03-23T04:00:03;22.67;;;11.70;;
76593;SDS011;65482;50.240;14.302;2024-03-23T04:02:30;19.85;;;11.95;;
76593;SDS011;65482;50.240;14.302;2024-03-23T04:04:55;19.73;;;12.18;;
76593;SDS011;65482;50.240;14.302;2024-03-23T04:07:21;19.70;;;11.95;;
76593;SDS011;65482;50.240;14.302;2024-03-23T04:09:48;23.65;;;12.23;;
76593;SDS011;65482;50.240;14.302;2024-03-23T04:12:14;23.13;;;13.27;;
76593;SDS011;65482;50.240;14.302;2024-03-23T04:14:40;18.23;;;11.95;;
76593;SDS011;65482;50.240;14.302;2024-03-23T04:17:06;22.52;;;13.55;;
76593;SDS011;65482;50.240;14.302;2024-03-23T04:19:31;26.98;;;12.57;;
76593;SDS011;65482;50.240;14.302;2024-03-23T04:21:57;18.58;;;11.88;;
76593;SDS011;65482;50.240;14.302;2024-03-23T04:24:22;20.92;;;11.82;;
76593;SDS011;65482;50.240;14.302;2024-03-23T04:26:49;19.08;;;11.55;;
76593;SDS011;65482;50.240;14.302;2024-03-23T04:29:15;18.90;;;11.93;;
76593;SDS011;65482;50.240;14.302;2024-03-23T04:31:40;23.05;;;11.57;;
76593;SDS011;65482;50.240;14.302;2024-03-23T04:34:06;18.02;;;11.35;;
76593;SDS011;65482;50.240;14.302;2024-03-23T04:36:31;21.13;;;11.65;;
76593;SDS011;65482;50.240;14.302;2024-03-23T04:38:58;17.95;;;11.32;;
76593;SDS011;65482;50.240;14.302;2024-03-23T04:41:25;21.75;;;11.55;;
76593;SDS011;65482;50.240;14.302;2024-03-23T04:43:51;17.25;;;10.93;;
76593;SDS011;65482;50.240;14.302;2024-03-23T04:46:16;18.35;;;10.85;;
76593;SDS011;65482;50.240;14.302;2024-03-23T04:48:42;18.63;;;11.85;;
76593;SDS011;65482;50.240;14.302;2024-03-23T04:51:10;20.85;;;11.82;;
76593;SDS011;65482;50.240;14.302;2024-03-23T04:53:37;20.77;;;12.05;;
76593;SDS011;65482;50.240;14.302;2024-03-23T04:56:03;19.58;;;11.35;;
76593;SDS011;65482;50.240;14.302;2024-03-23T04:58:29;18.83;;;11.68;;
76593;SDS011;65482;50.240;14.302;2024-03-23T05:00:56;19.67;;;10.75;;
76593;SDS011;65482;50.240;14.302;2024-03-23T05:03:22;18.88;;;11.48;;
76593;SDS011;65482;50.240;14.302;2024-03-23T05:05:48;16.35;;;10.60;;
76593;SDS011;65482;50.240;14.302;2024-03-23T05:08:14;18.30;;;11.73;;
76593;SDS011;65482;50.240;14.302;2024-03-23T05:10:41;21.00;;;11.57;;
76593;SDS011;65482;50.240;14.302;2024-03-23T05:13:07;20.50;;;11.15;;
76593;SDS011;65482;50.240;14.302;2024-03-23T05:15:33;21.67;;;11.88;;
76593;SDS011;65482;50.240;14.302;2024-03-23T05:17:59;19.13;;;11.88;;
76593;SDS011;65482;50.240;14.302;2024-03-23T05:20:25;20.15;;;11.82;;
76593;SDS011;65482;50.240;14.302;2024-03-23T05:22:50;21.70;;;11.82;;
76593;SDS011;65482;50.240;14.302;2024-03-23T05:25:16;19.88;;;11.77;;
76593;SDS011;65482;50.240;14.302;2024-03-23T05:27:41;20.27;;;12.40;;
76593;SDS011;65482;50.240;14.302;2024-03-23T05:30:07;22.65;;;12.88;;
76593;SDS011;65482;50.240;14.302;2024-03-23T05:32:34;22.52;;;12.70;;
76593;SDS011;65482;50.240;14.302;2024-03-23T05:35:00;18.10;;;11.85;;
76593;SDS011;65482;50.240;14.302;2024-03-23T05:37:26;23.05;;;12.63;;
76593;SDS011;65482;50.240;14.302;2024-03-23T05:39:51;22.83;;;13.23;;
76593;SDS011;65482;50.240;14.302;2024-03-23T05:42:17;21.92;;;13.15;;
76593;SDS011;65482;50.240;14.302;2024-03-23T05:44:44;20.67;;;11.68;;
76593;SDS011;65482;50.240;14.302;2024-03-23T05:47:10;21.45;;;12.85;;
76593;SDS011;65482;50.240;14.302;2024-03-23T05:49:37;22.55;;;12.52;;
76593;SDS011;65482;50.240;14.302;2024-03-23T05:52:02;23.10;;;12.90;;
76593;SDS011;65482;50.240;14.302;2024-03-23T05:54:30;20.55;;;12.60;;
76593;SDS011;65482;50.240;14.302;2024-03-23T05:56:57;22.95;;;13.93;;
76593;SDS011;65482;50.240;14.302;2024-03-23T05:59:22;26.73;;;14.48;;
76593;SDS011;65482;50.240;14.302;2024-03-23T06:01:48;24.20;;;12.75;;
76593;SDS011;65482;50.240;14.302;2024-03-23T06:04:14;28.40;;;15.07;;
76593;SDS011;65482;50.240;14.302;2024-03-23T06:06:41;23.45;;;13.77;;
76593;SDS011;65482;50.240;14.302;2024-03-23T06:09:08;27.15;;;15.10;;
76593;SDS011;65482;50.240;14.302;2024-03-23T06:11:34;25.50;;;15.20;;
76593;SDS011;65482;50.240;14.302;2024-03-23T06:13:59;25.05;;;15.00;;
76593;SDS011;65482;50.240;14.302;2024-03-23T06:16:25;21.65;;;14.25;;
76593;SDS011;65482;50.240;14.302;2024-03-23T06:18:52;26.17;;;16.55;;
76593;SDS011;65482;50.240;14.302;2024-03-23T06:21:19;22.50;;;13.63;;
76593;SDS011;65482;50.240;14.302;2024-03-23T06:23:46;53.80;;;33.85;;
76593;SDS011;65482;50.240;14.302;2024-03-23T06:26:17;22.35;;;13.10;;
76593;SDS011;65482;50.240;14.302;2024-03-23T06:28:46;29.38;;;18.67;;
76593;SDS011;65482;50.240;14.302;2024-03-23T06:31:12;21.10;;;13.57;;
76593;SDS011;65482;50.240;14.302;2024-03-23T06:33:38;70.75;;;39.20;;
76593;SDS011;65482;50.240;14.302;2024-03-23T06:36:04;35.88;;;19.60;;
76593;SDS011;65482;50.240;14.302;2024-03-23T06:38:31;22.38;;;14.98;;
76593;SDS011;65482;50.240;14.302;2024-03-23T06:40:57;25.33;;;15.65;;
76593;SDS011;65482;50.240;14.302;2024-03-23T06:43:23;23.92;;;15.43;;
76593;SDS011;65482;50.240;14.302;2024-03-23T06:45:54;22.65;;;15.15;;
76593;SDS011;65482;50.240;14.302;2024-03-23T06:48:20;24.02;;;14.60;;
76593;SDS011;65482;50.240;14.302;2024-03-23T06:50:46;19.52;;;13.20;;
76593;SDS011;65482;50.240;14.302;2024-03-23T06:53:12;19.55;;;13.23;;
76593;SDS011;65482;50.240;14.302;2024-03-23T06:55:38;20.38;;;12.90;;
76593;SDS011;65482;50.240;14.302;2024-03-23T06:58:04;19.30;;;12.75;;
76593;SDS011;65482;50.240;14.302;2024-03-23T07:00:30;18.50;;;12.20;;
76593;SDS011;65482;50.240;14.302;2024-03-23T07:02:56;18.55;;;12.77;;
76593;SDS011;65482;50.240;14.302;2024-03-23T07:05:21;19.05;;;10.77;;
76593;SDS011;65482;50.240;14.302;2024-03-23T07:07:47;15.52;;;10.20;;
76593;SDS011;65482;50.240;14.302;2024-03-23T07:10:12;17.25;;;10.60;;
76593;SDS011;65482;50.240;14.302;2024-03-23T07:12:39;12.38;;;9.85;;
76593;SDS011;65482;50.240;14.302;2024-03-23T07:15:04;12.75;;;9.07;;
76593;SDS011;65482;50.240;14.302;2024-03-23T07:17:31;12.95;;;9.73;;
76593;SDS011;65482;50.240;14.302;2024-03-23T07:19:58;13.02;;;9.00;;
76593;SDS011;65482;50.240;14.302;2024-03-23T07:22:24;12.63;;;8.52;;
76593;SDS011;65482;50.240;14.302;2024-03-23T07:24:49;11.15;;;9.00;;
76593;SDS011;65482;50.240;14.302;2024-03-23T07:27:15;10.55;;;8.23;;
76593;SDS011;65482;50.240;14.302;2024-03-23T07:29:42;8.20;;;6.03;;
76593;SDS011;65482;50.240;14.302;2024-03-23T07:32:08;8.40;;;6.10;;
76593;SDS011;65482;50.240;14.302;2024-03-23T07:34:33;8.40;;;6.30;;
76593;SDS011;65482;50.240;14.302;2024-03-23T07:37:02;9.77;;;5.85;;
76593;SDS011;65482;50.240;14.302;2024-03-23T07:39:28;8.10;;;5.60;;
76593;SDS011;65482;50.240;14.302;2024-03-23T07:41:54;8.15;;;5.57;;
76593;SDS011;65482;50.240;14.302;2024-03-23T07:44:20;8.07;;;5.60;;
76593;SDS011;65482;50.240;14.302;2024-03-23T07:46:46;6.45;;;5.05;;
76593;SDS011;65482;50.240;14.302;2024-03-23T07:49:11;7.55;;;4.88;;
76593;SDS011;65482;50.240;14.302;2024-03-23T07:51:37;9.23;;;5.40;;
76593;SDS011;65482;50.240;14.302;2024-03-23T07:54:04;7.75;;;4.60;;
76593;SDS011;65482;50.240;14.302;2024-03-23T07:56:30;5.18;;;4.28;;
76593;SDS011;65482;50.240;14.302;2024-03-23T07:58:56;5.30;;;4.15;;
76593;SDS011;65482;50.240;14.302;2024-03-23T08:01:22;6.30;;;3.50;;
76593;SDS011;65482;50.240;14.302;2024-03-23T08:03:49;4.18;;;3.33;;
76593;SDS011;65482;50.240;14.302;2024-03-23T08:06:16;5.90;;;4.22;;
76593;SDS011;65482;50.240;14.302;2024-03-23T08:08:43;7.13;;;4.25;;
76593;SDS011;65482;50.240;14.302;2024-03-23T08:11:10;5.80;;;3.80;;
76593;SDS011;65482;50.240;14.302;2024-03-23T08:13:38;6.85;;;4.22;;
76593;SDS011;65482;50.240;14.302;2024-03-23T08:16:05;6.43;;;4.00;;
76593;SDS011;65482;50.240;14.302;2024-03-23T08:18:31;6.93;;;4.20;;
76593;SDS011;65482;50.240;14.302;2024-03-23T08:21:05;5.10;;;4.10;;
76593;SDS011;65482;50.240;14.302;2024-03-23T08:23:32;6.97;;;4.25;;
76593;SDS011;65482;50.240;14.302;2024-03-23T08:26:05;5.05;;;4.00;;
76593;SDS011;65482;50.240;14.302;2024-03-23T08:28:38;5.38;;;4.30;;
76593;SDS011;65482;50.240;14.302;2024-03-23T08:31:09;5.15;;;4.13;;
76593;SDS011;65482;50.240;14.302;2024-03-23T08:33:36;7.70;;;3.90;;
76593;SDS011;65482;50.240;14.302;2024-03-23T08:36:06;5.07;;;3.85;;
76593;SDS011;65482;50.240;14.302;2024-03-23T08:38:32;6.07;;;4.28;;
76593;SDS011;65482;50.240;14.302;2024-03-23T08:41:02;5.88;;;4.03;;
76593;SDS011;65482;50.240;14.302;2024-03-23T08:43:28;5.57;;;3.58;;
76593;SDS011;65482;50.240;14.302;2024-03-23T08:48:35;7.07;;;3.75;;
76593;SDS011;65482;50.240;14.302;2024-03-23T08:51:02;6.18;;;4.10;;
76593;SDS011;65482;50.240;14.302;2024-03-23T08:53:30;4.95;;;4.10;;
76593;SDS011;65482;50.240;14.302;2024-03-23T08:55:57;7.28;;;4.03;;
76593;SDS011;65482;50.240;14.302;2024-03-23T08:58:24;5.75;;;4.15;;
76593;SDS011;65482;50.240;14.302;2024-03-23T09:00:51;6.47;;;4.80;;
76593;SDS011;65482;50.240;14.302;2024-03-23T09:03:17;7.85;;;4.80;;
76593;SDS011;65482;50.240;14.302;2024-03-23T09:05:45;7.55;;;5.28;;
76593;SDS011;65482;50.240;14.302;2024-03-23T09:08:11;7.13;;;4.90;;
76593;SDS011;65482;50.240;14.302;2024-03-23T09:10:38;8.20;;;5.03;;
76593;SDS011;65482;50.240;14.302;2024-03-23T09:13:04;7.68;;;4.63;;
76593;SDS011;65482;50.240;14.302;2024-03-23T09:15:34;9.02;;;5.13;;
76593;SDS011;65482;50.240;14.302;2024-03-23T09:18:02;9.20;;;5.15;;
76593;SDS011;65482;50.240;14.302;2024-03-23T09:20:29;8.70;;;5.15;;
76593;SDS011;65482;50.240;14.302;2024-03-23T09:22:57;8.27;;;4.40;;
76593;SDS011;65482;50.240;14.302;2024-03-23T09:25:23;7.50;;;5.35;;
76593;SDS011;65482;50.240;14.302;2024-03-23T09:27:48;7.55;;;4.43;;
76593;SDS011;65482;50.240;14.302;2024-03-23T09:30:15;12.02;;;4.68;;
76593;SDS011;65482;50.240;14.302;2024-03-23T09:32:42;9.82;;;4.20;;
76593;SDS011;65482;50.240;14.302;2024-03-23T09:35:08;4.10;;;3.30;;
76593;SDS011;65482;50.240;14.302;2024-03-23T09:37:34;6.85;;;3.38;;
76593;SDS011;65482;50.240;14.302;2024-03-23T09:40:00;7.35;;;3.03;;
76593;SDS011;65482;50.240;14.302;2024-03-23T09:42:25;4.40;;;3.20;;
76593;SDS011;65482;50.240;14.302;2024-03-23T09:44:51;4.70;;;3.30;;
76593;SDS011;65482;50.240;14.302;2024-03-23T09:47:17;4.90;;;3.53;;
76593;SDS011;65482;50.240;14.302;2024-03-23T09:49:43;8.45;;;3.75;;
76593;SDS011;65482;50.240;14.302;2024-03-23T09:52:09;6.38;;;3.95;;
76593;SDS011;65482;50.240;14.302;2024-03-23T09:54:36;6.35;;;4.18;;
76593;SDS011;65482;50.240;14.302;2024-03-23T09:57:01;7.45;;;4.38;;
76593;SDS011;65482;50.240;14.302;2024-03-23T09:59:29;5.85;;;4.10;;
76593;SDS011;65482;50.240;14.302;2024-03-23T10:01:54;6.47;;;3.60;;
76593;SDS011;65482;50.240;14.302;2024-03-23T10:04:37;8.40;;;4.20;;
76593;SDS011;65482;50.240;14.302;2024-03-23T10:07:17;4.97;;;3.53;;
76593;SDS011;65482;50.240;14.302;2024-03-23T10:09:44;5.97;;;3.38;;
76593;SDS011;65482;50.240;14.302;2024-03-23T10:12:12;4.68;;;3.67;;
76593;SDS011;65482;50.240;14.302;2024-03-23T10:14:42;8.38;;;4.25;;
76593;SDS011;65482;50.240;14.302;2024-03-23T10:17:11;7.22;;;3.80;;
76593;SDS011;65482;50.240;14.302;2024-03-23T10:19:44;6.40;;;4.00;;
76593;SDS011;65482;50.240;14.302;2024-03-23T10:22:14;7.10;;;4.18;;
76593;SDS011;65482;50.240;14.302;2024-03-23T10:24:43;8.90;;;5.55;;
76593;SDS011;65482;50.240;14.302;2024-03-23T10:27:08;7.40;;;4.43;;
76593;SDS011;65482;50.240;14.302;2024-03-23T10:29:34;6.35;;;4.07;;
76593;SDS011;65482;50.240;14.302;2024-03-23T10:32:10;5.85;;;3.92;;
76593;SDS011;65482;50.240;14.302;2024-03-23T10:34:39;5.43;;;3.42;;
76593;SDS011;65482;50.240;14.302;2024-03-23T10:37:06;5.90;;;3.80;;
76593;SDS011;65482;50.240;14.302;2024-03-23T10:39:33;5.70;;;3.80;;
76593;SDS011;65482;50.240;14.302;2024-03-23T10:42:08;7.55;;;4.40;;
76593;SDS011;65482;50.240;14.302;2024-03-23T10:44:37;6.70;;;4.00;;
76593;SDS011;65482;50.240;14.302;2024-03-23T10:47:04;6.90;;;4.63;;
76593;SDS011;65482;50.240;14.302;2024-03-23T10:49:31;6.88;;;3.97;;
76593;SDS011;65482;50.240;14.302;2024-03-23T10:51:58;5.00;;;3.50;;
76593;SDS011;65482;50.240;14.302;2024-03-23T10:54:25;8.98;;;5.35;;
76593;SDS011;65482;50.240;14.302;2024-03-23T10:57:13;5.82;;;3.88;;
76593;SDS011;65482;50.240;14.302;2024-03-23T10:59:41;4.75;;;3.60;;
76593;SDS011;65482;50.240;14.302;2024-03-23T11:02:07;6.10;;;4.40;;
76593;SDS011;65482;50.240;14.302;2024-03-23T11:04:44;6.00;;;4.55;;
76593;SDS011;65482;50.240;14.302;2024-03-23T11:07:29;5.22;;;3.65;;
76593;SDS011;65482;50.240;14.302;2024-03-23T11:09:56;3.95;;;3.10;;
76593;SDS011;65482;50.240;14.302;2024-03-23T11:15:11;6.32;;;3.53;;
76593;SDS011;65482;50.240;14.302;2024-03-23T11:17:37;4.03;;;3.22;;
76593;SDS011;65482;50.240;14.302;2024-03-23T11:20:04;10.43;;;4.32;;
76593;SDS011;65482;50.240;14.302;2024-03-23T11:22:40;6.88;;;4.15;;
76593;SDS011;65482;50.240;14.302;2024-03-23T11:27:47;8.85;;;3.75;;
76593;SDS011;65482;50.240;14.302;2024-03-23T11:32:47;6.30;;;3.00;;
76593;SDS011;65482;50.240;14.302;2024-03-23T11:35:48;4.55;;;2.92;;
76593;SDS011;65482;50.240;14.302;2024-03-23T11:38:11;3.00;;;2.05;;
76593;SDS011;65482;50.240;14.302;2024-03-23T11:40:41;3.30;;;1.98;;
76593;SDS011;65482;50.240;14.302;2024-03-23T11:43:09;4.22;;;2.20;;
76593;SDS011;65482;50.240;14.302;2024-03-23T11:45:38;3.72;;;1.90;;
76593;SDS011;65482;50.240;14.302;2024-03-23T11:48:06;4.03;;;1.83;;
76593;SDS011;65482;50.240;14.302;2024-03-23T11:50:32;5.47;;;1.75;;
76593;SDS011;65482;50.240;14.302;2024-03-23T11:53:08;5.85;;;1.80;;
76593;SDS011;65482;50.240;14.302;2024-03-23T11:58:15;5.75;;;1.70;;
76593;SDS011;65482;50.240;14.302;2024-03-23T12:00:42;4.32;;;1.58;;
76593;SDS011;65482;50.240;14.302;2024-03-23T12:03:07;2.75;;;1.58;;
76593;SDS011;65482;50.240;14.302;2024-03-23T12:05:36;3.58;;;1.80;;
76593;SDS011;65482;50.240;14.302;2024-03-23T12:08:16;3.90;;;1.55;;
76593;SDS011;65482;50.240;14.302;2024-03-23T12:10:47;2.08;;;1.40;;
76593;SDS011;65482;50.240;14.302;2024-03-23T12:13:18;2.78;;;1.38;;
76593;SDS011;65482;50.240;14.302;2024-03-23T12:15:49;1.80;;;1.13;;
76593;SDS011;65482;50.240;14.302;2024-03-23T12:18:16;3.60;;;0.90;;
76593;SDS011;65482;50.240;14.302;2024-03-23T12:20:43;3.45;;;0.90;;
76593;SDS011;65482;50.240;14.302;2024-03-23T12:23:10;3.90;;;0.80;;
76593;SDS011;65482;50.240;14.302;2024-03-23T12:25:40;9.90;;;0.88;;
76593;SDS011;65482;50.240;14.302;2024-03-23T12:28:06;2.08;;;0.90;;
76593;SDS011;65482;50.240;14.302;2024-03-23T12:30:34;1.35;;;0.50;;
76593;SDS011;65482;50.240;14.302;2024-03-23T12:33:01;4.32;;;0.90;;
76593;SDS011;65482;50.240;14.302;2024-03-23T12:35:27;1.20;;;0.70;;
76593;SDS011;65482;50.240;14.302;2024-03-23T12:37:52;5.75;;;1.45;;
76593;SDS011;65482;50.240;14.302;2024-03-23T12:40:18;1.08;;;0.80;;
76593;SDS011;65482;50.240;14.302;2024-03-23T12:42:43;1.80;;;0.88;;
76593;SDS011;65482;50.240;14.302;2024-03-23T12:45:10;1.55;;;0.98;;
76593;SDS011;65482;50.240;14.302;2024-03-23T12:47:36;2.03;;;0.70;;
76593;SDS011;65482;50.240;14.302;2024-03-23T12:50:02;1.38;;;0.70;;
76593;SDS011;65482;50.240;14.302;2024-03-23T12:52:28;3.90;;;1.00;;
76593;SDS011;65482;50.240;14.302;2024-03-23T12:54:55;0.95;;;0.70;;
76593;SDS011;65482;50.240;14.302;2024-03-23T12:57:25;0.85;;;0.50;;
76593;SDS011;65482;50.240;14.302;2024-03-23T12:59:51;0.50;;;0.50;;
76593;SDS011;65482;50.240;14.302;2024-03-23T13:02:19;0.50;;;0.40;;
76593;SDS011;65482;50.240;14.302;2024-03-23T13:04:51;1.02;;;0.60;;
76593;SDS011;65482;50.240;14.302;2024-03-23T13:07:18;4.28;;;1.45;;
76593;SDS011;65482;50.240;14.302;2024-03-23T13:09:45;2.10;;;1.00;;
76593;SDS011;65482;50.240;14.302;2024-03-23T13:12:11;3.13;;;0.60;;
76593;SDS011;65482;50.240;14.302;2024-03-23T13:14:41;0.50;;;0.50;;
76593;SDS011;65482;50.240;14.302;2024-03-23T13:17:07;2.42;;;0.63;;
76593;SDS011;65482;50.240;14.302;2024-03-23T13:19:34;1.27;;;0.60;;
76593;SDS011;65482;50.240;14.302;2024-03-23T13:22:00;1.08;;;0.70;;
76593;SDS011;65482;50.240;14.302;2024-03-23T13:24:27;1.92;;;0.98;;
76593;SDS011;65482;50.240;14.302;2024-03-23T13:26:53;3.35;;;0.70;;
76593;SDS011;65482;50.240;14.302;2024-03-23T13:29:20;0.95;;;0.75;;
76593;SDS011;65482;50.240;14.302;2024-03-23T13:31:47;1.10;;;0.60;;
76593;SDS011;65482;50.240;14.302;2024-03-23T13:34:14;2.90;;;0.43;;
76593;SDS011;65482;50.240;14.302;2024-03-23T13:36:42;2.35;;;1.27;;
76593;SDS011;65482;50.240;14.302;2024-03-23T13:39:09;1.27;;;0.70;;
76593;SDS011;65482;50.240;14.302;2024-03-23T13:41:37;0.63;;;0.52;;
76593;SDS011;65482;50.240;14.302;2024-03-23T13:44:04;1.25;;;0.60;;
76593;SDS011;65482;50.240;14.302;2024-03-23T13:46:30;0.98;;;0.60;;
76593;SDS011;65482;50.240;14.302;2024-03-23T13:48:56;0.80;;;0.60;;
76593;SDS011;65482;50.240;14.302;2024-03-23T13:51:25;1.52;;;0.70;;
76593;SDS011;65482;50.240;14.302;2024-03-23T13:53:57;1.52;;;0.90;;
76593;SDS011;65482;50.240;14.302;2024-03-23T13:56:26;0.98;;;0.88;;
76593;SDS011;65482;50.240;14.302;2024-03-23T13:58:56;1.65;;;1.10;;
76593;SDS011;65482;50.240;14.302;2024-03-23T14:01:21;1.23;;;1.00;;
76593;SDS011;65482;50.240;14.302;2024-03-23T14:03:48;2.80;;;1.10;;
76593;SDS011;65482;50.240;14.302;2024-03-23T14:06:19;1.60;;;1.30;;
76593;SDS011;65482;50.240;14.302;2024-03-23T14:08:49;1.83;;;1.05;;
76593;SDS011;65482;50.240;14.302;2024-03-23T14:11:15;2.00;;;1.20;;
76593;SDS011;65482;50.240;14.302;2024-03-23T14:13:46;0.98;;;0.90;;
76593;SDS011;65482;50.240;14.302;2024-03-23T14:16:11;2.53;;;1.15;;
76593;SDS011;65482;50.240;14.302;2024-03-23T14:18:37;2.10;;;0.75;;
76593;SDS011;65482;50.240;14.302;2024-03-23T14:21:02;1.05;;;0.73;;
76593;SDS011;65482;50.240;14.302;2024-03-23T14:23:29;2.35;;;1.13;;
76593;SDS011;65482;50.240;14.302;2024-03-23T14:25:59;3.08;;;1.33;;
76593;SDS011;65482;50.240;14.302;2024-03-23T14:28:25;1.58;;;0.80;;
76593;SDS011;65482;50.240;14.302;2024-03-23T14:30:51;0.85;;;0.60;;
76593;SDS011;65482;50.240;14.302;2024-03-23T14:33:18;1.40;;;0.70;;
76593;SDS011;65482;50.240;14.302;2024-03-23T14:35:51;1.40;;;0.70;;
76593;SDS011;65482;50.240;14.302;2024-03-23T14:38:18;2.10;;;0.75;;
76593;SDS011;65482;50.240;14.302;2024-03-23T14:40:45;1.60;;;0.80;;
76593;SDS011;65482;50.240;14.302;2024-03-23T14:43:12;1.15;;;0.95;;
76593;SDS011;65482;50.240;14.302;2024-03-23T14:46:05;1.10;;;0.90;;
76593;SDS011;65482;50.240;14.302;2024-03-23T14:48:31;1.23;;;0.80;;
76593;SDS011;65482;50.240;14.302;2024-03-23T14:50:59;4.00;;;1.10;;
76593;SDS011;65482;50.240;14.302;2024-03-23T14:53:25;2.63;;;1.10;;
76593;SDS011;65482;50.240;14.302;2024-03-23T14:55:55;1.52;;;1.10;;
76593;SDS011;65482;50.240;14.302;2024-03-23T14:58:36;3.80;;;1.45;;
76593;SDS011;65482;50.240;14.302;2024-03-23T15:01:03;2.35;;;1.10;;
76593;SDS011;65482;50.240;14.302;2024-03-23T15:03:30;1.30;;;1.00;;
76593;SDS011;65482;50.240;14.302;2024-03-23T15:05:56;2.60;;;1.35;;
76593;SDS011;65482;50.240;14.302;2024-03-23T15:08:23;3.15;;;1.20;;
76593;SDS011;65482;50.240;14.302;2024-03-23T15:10:49;3.45;;;1.30;;
76593;SDS011;65482;50.240;14.302;2024-03-23T15:13:15;2.85;;;1.10;;
76593;SDS011;65482;50.240;14.302;2024-03-23T15:15:41;4.53;;;1.10;;
76593;SDS011;65482;50.240;14.302;2024-03-23T15:18:12;2.08;;;1.25;;
76593;SDS011;65482;50.240;14.302;2024-03-23T15:20:39;1.95;;;1.20;;
76593;SDS011;65482;50.240;14.302;2024-03-23T15:23:04;1.80;;;1.10;;
76593;SDS011;65482;50.240;14.302;2024-03-23T15:25:30;2.50;;;1.30;;
76593;SDS011;65482;50.240;14.302;2024-03-23T15:27:57;2.28;;;1.35;;
76593;SDS011;65482;50.240;14.302;2024-03-23T15:30:23;2.95;;;1.35;;